sensor_id;sensor_type;location;lat;lon;timestamp;temperature;humidity
11112;DHT22;5609;49.466;8.468;2024-01-10T02:00:44;-0.60;99.90
11112;DHT22;5609;49.466;8.468;2024-01-10T02:03:11;4.00;99.90
11112;DHT22;5609;49.466;8.468;2024-01-10T02:05:39;4.00;99.90
11112;DHT22;5609;49.466;8.468;2024-01-10T02:08:06;3.80;99.90
11112;DHT22;5609;49.466;8.468;2024-01-10T02:10:34;3.70;99.90
11112;DHT22;5609;49.466;8.468;2024-01-10T02:13:01;3.40;99.90
11112;DHT22;5609;49.466;8.468;2024-01-10T02:15:29;3.30;99.90
11112;DHT22;5609;49.466;8.468;2024-01-10T02:17:57;3.00;99.90
11112;DHT22;5609;49.466;8.468;2024-01-10T02:20:24;2.90;99.90
11112;DHT22;5609;49.466;8.468;2024-01-10T02:22:51;2.70;99.90
11112;DHT22;5609;49.466;8.468;2024-01-10T02:25:19;2.80;99.90
11112;DHT22;5609;49.466;8.468;2024-01-10T02:27:47;2.60;97.30
11112;DHT22;5609;49.466;8.468;2024-01-10T02:30:14;2.70;99.90
11112;DHT22;5609;49.466;8.468;2024-01-10T02:32:41;3.00;99.90
11112;DHT22;5609;49.466;8.468;2024-01-10T02:35:08;3.10;99.90
11112;DHT22;5609;49.466;8.468;2024-01-10T02:37:37;2.60;99.90
11112;DHT22;5609;49.466;8.468;2024-01-10T02:40:07;2.70;99.90
11112;DHT22;5609;49.466;8.468;2024-01-10T02:42:35;2.50;99.90
11112;DHT22;5609;49.466;8.468;2024-01-10T02:45:03;2.30;99.90
11112;DHT22;5609;49.466;8.468;2024-01-10T02:47:30;2.20;99.90
11112;DHT22;5609;49.466;8.468;2024-01-10T02:49:56;2.50;99.90
11112;DHT22;5609;49.466;8.468;2024-01-10T02:52:23;2.60;99.90
11112;DHT22;5609;49.466;8.468;2024-01-10T02:54:50;2.50;99.90
11112;DHT22;5609;49.466;8.468;2024-01-10T02:57:17;2.50;99.90
11112;DHT22;5609;49.466;8.468;2024-01-10T02:59:47;2.80;99.90
11112;DHT22;5609;49.466;8.468;2024-01-10T03:02:13;2.70;99.90
11112;DHT22;5609;49.466;8.468;2024-01-10T03:04:41;2.50;99.90
11112;DHT22;5609;49.466;8.468;2024-01-10T03:07:08;2.70;99.90
11112;DHT22;5609;49.466;8.468;2024-01-10T03:09:35;2.60;99.90
11112;DHT22;5609;49.466;8.468;2024-01-10T03:12:02;2.40;99.90
11112;DHT22;5609;49.466;8.468;2024-01-10T03:14:28;2.50;99.90
11112;DHT22;5609;49.466;8.468;2024-01-10T03:16:57;2.20;99.90
11112;DHT22;5609;49.466;8.468;2024-01-10T03:19:24;2.40;99.90
11112;DHT22;5609;49.466;8.468;2024-01-10T03:21:55;2.80;99.90
11112;DHT22;5609;49.466;8.468;2024-01-10T03:24:22;2.80;99.90
11112;DHT22;5609;49.466;8.468;2024-01-10T03:26:52;2.90;99.90
11112;DHT22;5609;49.466;8.468;2024-01-10T03:29:19;2.90;99.90
11112;DHT22;5609;49.466;8.468;2024-01-10T03:31:45;3.00;99.90
11112;DHT22;5609;49.466;8.468;2024-01-10T03:34:14;2.90;99.90
11112;DHT22;5609;49.466;8.468;2024-01-10T03:36:43;3.20;99.90
11112;DHT22;5609;49.466;8.468;2024-01-10T03:39:10;3.10;99.90
11112;DHT22;5609;49.466;8.468;2024-01-10T03:41:37;3.10;99.90
11112;DHT22;5609;49.466;8.468;2024-01-10T03:44:04;2.90;99.90
11112;DHT22;5609;49.466;8.468;2024-01-10T03:46:31;3.10;99.90
11112;DHT22;5609;49.466;8.468;2024-01-10T03:48:58;3.30;99.90
11112;DHT22;5609;49.466;8.468;2024-01-10T03:51:27;3.40;99.90
11112;DHT22;5609;49.466;8.468;2024-01-10T03:53:54;3.60;99.90
11112;DHT22;5609;49.466;8.468;2024-01-10T03:56:21;3.70;99.90
11112;DHT22;5609;49.466;8.468;2024-01-10T03:58:48;3.70;99.90
11112;DHT22;5609;49.466;8.468;2024-01-10T04:01:15;3.60;99.90
11112;DHT22;5609;49.466;8.468;2024-01-10T04:03:41;3.70;99.90
11112;DHT22;5609;49.466;8.468;2024-01-10T04:06:10;3.80;99.90
11112;DHT22;5609;49.466;8.468;2024-01-10T04:08:38;3.70;99.90
11112;DHT22;5609;49.466;8.468;2024-01-10T04:11:05;3.60;99.90
11112;DHT22;5609;49.466;8.468;2024-01-10T04:13:32;3.40;99.90
11112;DHT22;5609;49.466;8.468;2024-01-10T04:15:59;3.40;99.90
11112;DHT22;5609;49.466;8.468;2024-01-10T04:18:25;3.30;99.90
11112;DHT22;5609;49.466;8.468;2024-01-10T04:20:52;3.10;99.90
11112;DHT22;5609;49.466;8.468;2024-01-10T04:23:20;3.00;99.90
11112;DHT22;5609;49.466;8.468;2024-01-10T04:25:49;3.10;99.90
11112;DHT22;5609;49.466;8.468;2024-01-10T04:28:16;3.00;99.90
11112;DHT22;5609;49.466;8.468;2024-01-10T04:30:44;3.10;99.90
11112;DHT22;5609;49.466;8.468;2024-01-10T04:33:11;3.20;99.90
11112;DHT22;5609;49.466;8.468;2024-01-10T04:35:37;3.60;99.90
11112;DHT22;5609;49.466;8.468;2024-01-10T04:38:04;3.50;99.90
11112;DHT22;5609;49.466;8.468;2024-01-10T04:40:31;3.60;99.90
11112;DHT22;5609;49.466;8.468;2024-01-10T04:42:59;3.60;99.90
11112;DHT22;5609;49.466;8.468;2024-01-10T04:45:26;3.70;99.90
11112;DHT22;5609;49.466;8.468;2024-01-10T04:47:53;3.70;99.90
11112;DHT22;5609;49.466;8.468;2024-01-10T04:50:19;3.50;99.90
11112;DHT22;5609;49.466;8.468;2024-01-10T04:52:46;3.70;99.90
11112;DHT22;5609;49.466;8.468;2024-01-10T04:55:13;3.60;99.90
11112;DHT22;5609;49.466;8.468;2024-01-10T04:57:39;3.60;99.90
11112;DHT22;5609;49.466;8.468;2024-01-10T05:00:09;3.70;99.90
11112;DHT22;5609;49.466;8.468;2024-01-10T05:02:36;3.50;99.90
11112;DHT22;5609;49.466;8.468;2024-01-10T05:05:03;3.40;99.90
11112;DHT22;5609;49.466;8.468;2024-01-10T05:07:30;3.70;99.90
11112;DHT22;5609;49.466;8.468;2024-01-10T05:09:57;3.50;99.90
11112;DHT22;5609;49.466;8.468;2024-01-10T05:12:23;3.50;99.90
11112;DHT22;5609;49.466;8.468;2024-01-10T05:14:50;3.50;99.90
11112;DHT22;5609;49.466;8.468;2024-01-10T05:17:26;3.20;99.90
11112;DHT22;5609;49.466;8.468;2024-01-10T05:19:53;2.80;99.90
11112;DHT22;5609;49.466;8.468;2024-01-10T05:22:20;2.70;99.90
11112;DHT22;5609;49.466;8.468;2024-01-10T05:24:48;2.80;99.90
11112;DHT22;5609;49.466;8.468;2024-01-10T05:27:15;2.60;99.90
11112;DHT22;5609;49.466;8.468;2024-01-10T05:29:42;2.80;99.90
11112;DHT22;5609;49.466;8.468;2024-01-10T05:32:08;2.80;99.90
11112;DHT22;5609;49.466;8.468;2024-01-10T05:34:39;3.00;99.90
11112;DHT22;5609;49.466;8.468;2024-01-10T05:37:06;3.00;99.90
11112;DHT22;5609;49.466;8.468;2024-01-10T05:39:32;3.10;99.90
11112;DHT22;5609;49.466;8.468;2024-01-10T05:42:00;3.30;99.90
11112;DHT22;5609;49.466;8.468;2024-01-10T05:44:28;3.30;99.90
11112;DHT22;5609;49.466;8.468;2024-01-10T05:46:55;3.80;99.90
11112;DHT22;5609;49.466;8.468;2024-01-10T05:49:25;3.90;99.90
11112;DHT22;5609;49.466;8.468;2024-01-10T05:51:53;4.10;99.90
11112;DHT22;5609;49.466;8.468;2024-01-10T05:54:19;4.10;99.90
11112;DHT22;5609;49.466;8.468;2024-01-10T05:56:47;3.80;99.90
11112;DHT22;5609;49.466;8.468;2024-01-10T05:59:15;3.90;99.90
11112;DHT22;5609;49.466;8.468;2024-01-10T06:01:42;4.00;99.90
11112;DHT22;5609;49.466;8.468;2024-01-10T06:04:10;4.00;99.90
11112;DHT22;5609;49.466;8.468;2024-01-10T06:06:36;3.80;52.40
11112;DHT22;5609;49.466;8.468;2024-01-10T06:09:06;3.10;18.90
11112;DHT22;5609;49.466;8.468;2024-01-10T06:11:40;2.20;18.50
11112;DHT22;5609;49.466;8.468;2024-01-10T06:14:07;1.50;19.90
11112;DHT22;5609;49.466;8.468;2024-01-10T06:16:34;0.80;23.30
11112;DHT22;5609;49.466;8.468;2024-01-10T06:19:02;0.50;28.20
11112;DHT22;5609;49.466;8.468;2024-01-10T06:21:29;0.20;33.10
11112;DHT22;5609;49.466;8.468;2024-01-10T06:23:57;0.00;38.10
11112;DHT22;5609;49.466;8.468;2024-01-10T06:26:25;-0.10;44.10
11112;DHT22;5609;49.466;8.468;2024-01-10T06:28:51;-0.40;43.20
11112;DHT22;5609;49.466;8.468;2024-01-10T06:31:18;-0.60;45.70
11112;DHT22;5609;49.466;8.468;2024-01-10T06:33:46;-0.70;49.10
11112;DHT22;5609;49.466;8.468;2024-01-10T06:36:13;-0.90;52.60
11112;DHT22;5609;49.466;8.468;2024-01-10T06:38:40;-1.00;53.30
11112;DHT22;5609;49.466;8.468;2024-01-10T06:41:10;-1.10;51.80
11112;DHT22;5609;49.466;8.468;2024-01-10T06:43:40;-1.10;56.40
11112;DHT22;5609;49.466;8.468;2024-01-10T06:46:07;-1.00;57.80
11112;DHT22;5609;49.466;8.468;2024-01-10T06:48:35;-1.10;55.00
11112;DHT22;5609;49.466;8.468;2024-01-10T06:51:02;-1.10;54.70
11112;DHT22;5609;49.466;8.468;2024-01-10T06:53:32;-1.10;56.10
11112;DHT22;5609;49.466;8.468;2024-01-10T06:55:59;-1.20;53.20
11112;DHT22;5609;49.466;8.468;2024-01-10T12:08:11;-1.20;60.30
11112;DHT22;5609;49.466;8.468;2024-01-10T12:10:39;3.30;22.80
11112;DHT22;5609;49.466;8.468;2024-01-10T12:13:06;3.10;23.00
11112;DHT22;5609;49.466;8.468;2024-01-10T12:15:33;2.70;24.20
11112;DHT22;5609;49.466;8.468;2024-01-10T12:18:03;2.80;26.10
11112;DHT22;5609;49.466;8.468;2024-01-10T12:20:30;3.00;25.70
11112;DHT22;5609;49.466;8.468;2024-01-10T12:22:57;2.90;24.90
11112;DHT22;5609;49.466;8.468;2024-01-10T12:25:24;2.90;24.30
11112;DHT22;5609;49.466;8.468;2024-01-10T12:27:52;3.00;26.10
11112;DHT22;5609;49.466;8.468;2024-01-10T12:30:19;2.70;25.00
11112;DHT22;5609;49.466;8.468;2024-01-10T12:32:50;2.80;27.80
11112;DHT22;5609;49.466;8.468;2024-01-10T12:35:20;3.00;25.10
11112;DHT22;5609;49.466;8.468;2024-01-10T12:37:53;3.30;23.50
11112;DHT22;5609;49.466;8.468;2024-01-10T12:40:20;3.80;20.50
11112;DHT22;5609;49.466;8.468;2024-01-10T12:42:47;4.20;18.30
11112;DHT22;5609;49.466;8.468;2024-01-10T12:45:21;4.20;17.50
11112;DHT22;5609;49.466;8.468;2024-01-10T12:47:48;4.50;14.50
11112;DHT22;5609;49.466;8.468;2024-01-10T12:50:16;4.90;10.70
11112;DHT22;5609;49.466;8.468;2024-01-10T12:52:45;5.20;9.00
11112;DHT22;5609;49.466;8.468;2024-01-10T12:55:14;5.30;7.10
11112;DHT22;5609;49.466;8.468;2024-01-10T12:57:41;5.40;7.00
11112;DHT22;5609;49.466;8.468;2024-01-10T13:00:09;5.80;6.80
11112;DHT22;5609;49.466;8.468;2024-01-10T13:02:37;6.20;3.90
11112;DHT22;5609;49.466;8.468;2024-01-10T13:05:05;6.40;1.70
11112;DHT22;5609;49.466;8.468;2024-01-10T13:07:36;6.60;1.00
11112;DHT22;5609;49.466;8.468;2024-01-10T13:10:07;6.50;1.00
11112;DHT22;5609;49.466;8.468;2024-01-10T13:12:34;6.70;1.00
11112;DHT22;5609;49.466;8.468;2024-01-10T13:15:01;7.10;1.00
11112;DHT22;5609;49.466;8.468;2024-01-10T13:17:28;6.90;1.00
11112;DHT22;5609;49.466;8.468;2024-01-10T13:19:57;7.30;1.00
11112;DHT22;5609;49.466;8.468;2024-01-10T13:22:23;7.40;1.00
11112;DHT22;5609;49.466;8.468;2024-01-10T13:24:51;7.30;1.00
11112;DHT22;5609;49.466;8.468;2024-01-10T13:27:19;7.50;1.00
11112;DHT22;5609;49.466;8.468;2024-01-10T13:29:46;7.50;1.00
11112;DHT22;5609;49.466;8.468;2024-01-10T13:32:13;7.60;1.00
11112;DHT22;5609;49.466;8.468;2024-01-10T13:34:41;7.60;1.00
11112;DHT22;5609;49.466;8.468;2024-01-10T13:37:07;7.40;1.00
11112;DHT22;5609;49.466;8.468;2024-01-10T13:39:37;7.30;1.00
11112;DHT22;5609;49.466;8.468;2024-01-10T13:42:06;7.20;1.00
11112;DHT22;5609;49.466;8.468;2024-01-10T13:44:37;7.00;1.00
11112;DHT22;5609;49.466;8.468;2024-01-10T13:47:04;6.90;1.00
11112;DHT22;5609;49.466;8.468;2024-01-10T13:49:31;7.20;1.00
11112;DHT22;5609;49.466;8.468;2024-01-10T13:51:58;7.50;1.00
11112;DHT22;5609;49.466;8.468;2024-01-10T13:54:27;7.70;1.00
11112;DHT22;5609;49.466;8.468;2024-01-10T13:56:54;7.90;1.00
11112;DHT22;5609;49.466;8.468;2024-01-10T13:59:21;7.70;1.00
11112;DHT22;5609;49.466;8.468;2024-01-10T14:01:49;7.50;1.00
11112;DHT22;5609;49.466;8.468;2024-01-10T14:04:15;7.10;1.00
11112;DHT22;5609;49.466;8.468;2024-01-10T14:06:42;6.90;1.00
11112;DHT22;5609;49.466;8.468;2024-01-10T14:09:09;6.90;1.00
11112;DHT22;5609;49.466;8.468;2024-01-10T14:11:36;6.90;1.00
11112;DHT22;5609;49.466;8.468;2024-01-10T14:14:03;6.60;1.00
11112;DHT22;5609;49.466;8.468;2024-01-10T14:16:30;6.80;1.00
11112;DHT22;5609;49.466;8.468;2024-01-10T14:18:58;6.80;1.00
11112;DHT22;5609;49.466;8.468;2024-01-10T14:21:25;6.80;1.00
11112;DHT22;5609;49.466;8.468;2024-01-10T14:23:52;6.70;1.00
11112;DHT22;5609;49.466;8.468;2024-01-10T14:26:19;6.60;1.00
11112;DHT22;5609;49.466;8.468;2024-01-10T14:28:46;6.60;1.00
11112;DHT22;5609;49.466;8.468;2024-01-10T14:31:13;6.70;1.00
11112;DHT22;5609;49.466;8.468;2024-01-10T14:33:41;6.80;1.00
11112;DHT22;5609;49.466;8.468;2024-01-10T14:36:10;6.10;1.00
11112;DHT22;5609;49.466;8.468;2024-01-10T14:38:38;6.30;1.00
11112;DHT22;5609;49.466;8.468;2024-01-10T14:41:06;5.80;1.00
11112;DHT22;5609;49.466;8.468;2024-01-10T14:43:36;5.80;1.00
11112;DHT22;5609;49.466;8.468;2024-01-10T14:46:03;6.00;1.00
11112;DHT22;5609;49.466;8.468;2024-01-10T14:48:33;5.90;1.00
11112;DHT22;5609;49.466;8.468;2024-01-10T14:51:01;5.60;1.00
11112;DHT22;5609;49.466;8.468;2024-01-10T14:53:29;5.80;1.00
11112;DHT22;5609;49.466;8.468;2024-01-10T14:55:56;5.90;1.00
11112;DHT22;5609;49.466;8.468;2024-01-10T14:58:23;6.10;1.00
11112;DHT22;5609;49.466;8.468;2024-01-10T15:00:49;6.00;1.00
11112;DHT22;5609;49.466;8.468;2024-01-10T15:03:16;5.90;1.00
11112;DHT22;5609;49.466;8.468;2024-01-10T15:05:43;6.00;1.00
11112;DHT22;5609;49.466;8.468;2024-01-10T15:08:11;6.10;1.00
11112;DHT22;5609;49.466;8.468;2024-01-10T15:10:39;6.20;1.00
11112;DHT22;5609;49.466;8.468;2024-01-10T15:13:08;6.20;1.00
11112;DHT22;5609;49.466;8.468;2024-01-10T15:15:37;6.20;1.00
11112;DHT22;5609;49.466;8.468;2024-01-10T15:18:04;5.50;1.00
11112;DHT22;5609;49.466;8.468;2024-01-10T15:20:31;5.20;1.00
11112;DHT22;5609;49.466;8.468;2024-01-10T15:22:58;4.40;1.00
11112;DHT22;5609;49.466;8.468;2024-01-10T15:25:25;4.10;1.50
11112;DHT22;5609;49.466;8.468;2024-01-10T15:27:54;3.60;9.00
11112;DHT22;5609;49.466;8.468;2024-01-10T15:30:20;3.40;15.80
11112;DHT22;5609;49.466;8.468;2024-01-10T15:32:49;3.00;22.00
11112;DHT22;5609;49.466;8.468;2024-01-10T15:35:17;2.70;32.90
11112;DHT22;5609;49.466;8.468;2024-01-10T15:37:44;2.50;39.30
11112;DHT22;5609;49.466;8.468;2024-01-10T15:40:11;2.20;46.40
11112;DHT22;5609;49.466;8.468;2024-01-10T15:42:39;2.00;58.40
11112;DHT22;5609;49.466;8.468;2024-01-10T15:45:11;1.90;71.60
11112;DHT22;5609;49.466;8.468;2024-01-10T15:47:38;1.60;72.70
11112;DHT22;5609;49.466;8.468;2024-01-10T15:50:06;1.50;83.60
11112;DHT22;5609;49.466;8.468;2024-01-10T15:52:34;1.40;88.60
11112;DHT22;5609;49.466;8.468;2024-01-10T15:55:01;1.30;92.60
11112;DHT22;5609;49.466;8.468;2024-01-10T15:57:29;1.10;94.00
11112;DHT22;5609;49.466;8.468;2024-01-10T15:59:56;1.00;99.40
11112;DHT22;5609;49.466;8.468;2024-01-10T16:02:26;0.90;99.90
11112;DHT22;5609;49.466;8.468;2024-01-10T16:04:56;0.90;99.90
11112;DHT22;5609;49.466;8.468;2024-01-10T16:07:23;0.80;99.20
11112;DHT22;5609;49.466;8.468;2024-01-10T16:09:50;0.80;99.90
11112;DHT22;5609;49.466;8.468;2024-01-10T16:12:22;0.70;99.50
11112;DHT22;5609;49.466;8.468;2024-01-10T16:14:49;0.60;99.90
11112;DHT22;5609;49.466;8.468;2024-01-10T16:17:18;0.50;99.70
11112;DHT22;5609;49.466;8.468;2024-01-10T16:19:52;0.40;99.90
11112;DHT22;5609;49.466;8.468;2024-01-10T16:22:19;0.30;99.90
11112;DHT22;5609;49.466;8.468;2024-01-10T16:24:46;0.20;99.90
11112;DHT22;5609;49.466;8.468;2024-01-10T16:27:13;0.10;99.90
11112;DHT22;5609;49.466;8.468;2024-01-10T16:29:40;0.10;99.90
11112;DHT22;5609;49.466;8.468;2024-01-10T16:32:06;0.00;99.90
11112;DHT22;5609;49.466;8.468;2024-01-10T16:34:33;0.10;99.90
11112;DHT22;5609;49.466;8.468;2024-01-10T16:37:02;0.00;99.90
11112;DHT22;5609;49.466;8.468;2024-01-10T16:39:29;-0.10;99.90
11112;DHT22;5609;49.466;8.468;2024-01-10T16:41:56;-0.20;99.90
11112;DHT22;5609;49.466;8.468;2024-01-10T16:44:24;-0.20;99.90
11112;DHT22;5609;49.466;8.468;2024-01-10T16:46:50;-0.20;99.90
11112;DHT22;5609;49.466;8.468;2024-01-10T16:49:18;-0.20;99.90
11112;DHT22;5609;49.466;8.468;2024-01-10T16:51:45;-0.20;99.90
11112;DHT22;5609;49.466;8.468;2024-01-10T16:54:13;-0.30;99.90
11112;DHT22;5609;49.466;8.468;2024-01-10T16:56:40;-0.20;99.90
11112;DHT22;5609;49.466;8.468;2024-01-10T16:59:07;-0.30;99.90
11112;DHT22;5609;49.466;8.468;2024-01-10T17:01:35;-0.30;99.90
11112;DHT22;5609;49.466;8.468;2024-01-10T17:04:03;-0.30;99.90
11112;DHT22;5609;49.466;8.468;2024-01-10T17:06:30;-0.40;99.90
11112;DHT22;5609;49.466;8.468;2024-01-10T17:08:57;-0.40;99.90
11112;DHT22;5609;49.466;8.468;2024-01-10T17:11:34;-0.40;99.90
11112;DHT22;5609;49.466;8.468;2024-01-10T17:14:05;-0.40;99.90
11112;DHT22;5609;49.466;8.468;2024-01-10T17:16:32;-0.40;99.90
11112;DHT22;5609;49.466;8.468;2024-01-10T17:18:59;-0.40;99.90
11112;DHT22;5609;49.466;8.468;2024-01-10T17:21:27;-0.50;99.90
11112;DHT22;5609;49.466;8.468;2024-01-10T17:23:54;-0.50;99.90
11112;DHT22;5609;49.466;8.468;2024-01-10T17:26:21;-0.50;99.90
11112;DHT22;5609;49.466;8.468;2024-01-10T17:28:49;-0.50;99.90
11112;DHT22;5609;49.466;8.468;2024-01-10T17:31:17;-0.50;99.90
11112;DHT22;5609;49.466;8.468;2024-01-10T17:33:44;-0.60;99.90
11112;DHT22;5609;49.466;8.468;2024-01-10T17:36:11;-0.60;99.90
11112;DHT22;5609;49.466;8.468;2024-01-10T17:38:38;-0.60;99.90
11112;DHT22;5609;49.466;8.468;2024-01-10T17:41:05;-0.60;99.90
11112;DHT22;5609;49.466;8.468;2024-01-10T17:43:32;-0.70;99.90
11112;DHT22;5609;49.466;8.468;2024-01-10T17:46:02;-0.80;99.90
11112;DHT22;5609;49.466;8.468;2024-01-10T17:48:28;-0.80;99.90
11112;DHT22;5609;49.466;8.468;2024-01-10T17:50:55;-0.90;99.90
11112;DHT22;5609;49.466;8.468;2024-01-10T17:53:24;-0.80;99.90
11112;DHT22;5609;49.466;8.468;2024-01-10T17:55:51;-0.80;99.90
11112;DHT22;5609;49.466;8.468;2024-01-10T17:58:18;-0.90;99.90
11112;DHT22;5609;49.466;8.468;2024-01-10T18:00:46;-0.90;99.90
11112;DHT22;5609;49.466;8.468;2024-01-10T18:03:15;-0.90;99.90
11112;DHT22;5609;49.466;8.468;2024-01-10T18:05:41;-1.00;99.90
11112;DHT22;5609;49.466;8.468;2024-01-10T18:08:09;-1.00;99.90
11112;DHT22;5609;49.466;8.468;2024-01-10T18:10:36;-1.00;99.90
11112;DHT22;5609;49.466;8.468;2024-01-10T18:13:03;-1.00;99.90
11112;DHT22;5609;49.466;8.468;2024-01-10T18:15:31;-1.00;99.90
11112;DHT22;5609;49.466;8.468;2024-01-10T18:17:58;-1.00;99.90
11112;DHT22;5609;49.466;8.468;2024-01-10T18:20:26;-1.00;99.90
11112;DHT22;5609;49.466;8.468;2024-01-10T18:22:54;-1.00;99.90
11112;DHT22;5609;49.466;8.468;2024-01-10T18:25:20;-0.90;99.90
11112;DHT22;5609;49.466;8.468;2024-01-10T18:27:47;-0.90;99.90
11112;DHT22;5609;49.466;8.468;2024-01-10T18:30:14;-1.00;99.90
11112;DHT22;5609;49.466;8.468;2024-01-10T18:32:41;-1.00;99.90
11112;DHT22;5609;49.466;8.468;2024-01-10T18:35:08;-1.00;99.90
11112;DHT22;5609;49.466;8.468;2024-01-10T18:37:36;-1.00;99.90
11112;DHT22;5609;49.466;8.468;2024-01-10T18:40:04;-1.10;99.90
11112;DHT22;5609;49.466;8.468;2024-01-10T18:42:31;-1.10;99.90
11112;DHT22;5609;49.466;8.468;2024-01-10T18:45:00;-1.00;99.90
11112;DHT22;5609;49.466;8.468;2024-01-10T18:47:27;-1.10;99.90
11112;DHT22;5609;49.466;8.468;2024-01-10T18:49:54;-1.10;99.90
11112;DHT22;5609;49.466;8.468;2024-01-10T18:52:21;-1.10;99.90
11112;DHT22;5609;49.466;8.468;2024-01-10T18:54:49;-1.10;99.90
11112;DHT22;5609;49.466;8.468;2024-01-10T18:57:21;-1.20;99.90
11112;DHT22;5609;49.466;8.468;2024-01-10T18:59:48;-1.20;99.90
11112;DHT22;5609;49.466;8.468;2024-01-10T19:02:19;-1.20;99.90
11112;DHT22;5609;49.466;8.468;2024-01-10T19:04:49;-1.30;99.90
11112;DHT22;5609;49.466;8.468;2024-01-10T19:07:16;-1.40;99.90
11112;DHT22;5609;49.466;8.468;2024-01-10T19:09:43;-1.40;99.90
11112;DHT22;5609;49.466;8.468;2024-01-10T19:12:12;-1.40;99.90
11112;DHT22;5609;49.466;8.468;2024-01-10T19:14:39;-1.40;99.90
11112;DHT22;5609;49.466;8.468;2024-01-10T19:17:06;-1.50;99.90
11112;DHT22;5609;49.466;8.468;2024-01-10T19:19:33;-1.40;99.90
11112;DHT22;5609;49.466;8.468;2024-01-10T19:22:01;-1.50;99.90
11112;DHT22;5609;49.466;8.468;2024-01-10T19:24:32;-1.50;99.90
11112;DHT22;5609;49.466;8.468;2024-01-10T19:26:59;-1.50;99.90
11112;DHT22;5609;49.466;8.468;2024-01-10T19:29:27;-1.40;99.90
11112;DHT22;5609;49.466;8.468;2024-01-10T19:31:54;-1.40;99.90
11112;DHT22;5609;49.466;8.468;2024-01-10T19:34:20;-1.50;99.90
11112;DHT22;5609;49.466;8.468;2024-01-10T19:36:48;-1.50;99.90
11112;DHT22;5609;49.466;8.468;2024-01-10T19:39:18;-1.50;99.90
11112;DHT22;5609;49.466;8.468;2024-01-10T19:41:47;-1.50;99.90
11112;DHT22;5609;49.466;8.468;2024-01-10T19:44:14;-1.50;99.90
11112;DHT22;5609;49.466;8.468;2024-01-10T19:46:42;-1.50;99.90
11112;DHT22;5609;49.466;8.468;2024-01-10T19:49:14;-1.50;99.90
11112;DHT22;5609;49.466;8.468;2024-01-10T19:51:41;-1.50;99.90
11112;DHT22;5609;49.466;8.468;2024-01-10T19:54:07;-1.50;99.90
11112;DHT22;5609;49.466;8.468;2024-01-10T19:56:34;-1.50;99.90
11112;DHT22;5609;49.466;8.468;2024-01-10T19:59:01;-1.50;99.90
11112;DHT22;5609;49.466;8.468;2024-01-10T20:01:28;-1.50;99.90
11112;DHT22;5609;49.466;8.468;2024-01-10T20:03:57;-1.50;99.90
11112;DHT22;5609;49.466;8.468;2024-01-10T20:06:24;-1.50;99.90
11112;DHT22;5609;49.466;8.468;2024-01-10T20:08:52;-1.50;99.90
11112;DHT22;5609;49.466;8.468;2024-01-10T20:11:19;-1.50;99.90
11112;DHT22;5609;49.466;8.468;2024-01-10T20:13:45;-1.50;99.90
11112;DHT22;5609;49.466;8.468;2024-01-10T20:16:12;-1.50;99.90
11112;DHT22;5609;49.466;8.468;2024-01-10T20:18:39;-1.60;99.90
11112;DHT22;5609;49.466;8.468;2024-01-10T20:21:07;-1.70;99.90
11112;DHT22;5609;49.466;8.468;2024-01-10T20:23:36;-1.80;99.90
11112;DHT22;5609;49.466;8.468;2024-01-10T20:26:03;-1.70;99.90
11112;DHT22;5609;49.466;8.468;2024-01-10T20:28:30;-1.70;99.90
11112;DHT22;5609;49.466;8.468;2024-01-10T20:30:57;-1.70;99.90
11112;DHT22;5609;49.466;8.468;2024-01-10T20:33:23;-1.60;99.90
11112;DHT22;5609;49.466;8.468;2024-01-10T20:35:51;-1.60;99.90
11112;DHT22;5609;49.466;8.468;2024-01-10T20:38:20;-1.60;99.90
11112;DHT22;5609;49.466;8.468;2024-01-10T20:40:46;-1.60;99.90
11112;DHT22;5609;49.466;8.468;2024-01-10T20:43:13;-1.60;99.90
11112;DHT22;5609;49.466;8.468;2024-01-10T20:45:39;-1.60;99.90
11112;DHT22;5609;49.466;8.468;2024-01-10T20:48:06;-1.60;99.90
11112;DHT22;5609;49.466;8.468;2024-01-10T20:50:35;-1.70;99.90
11112;DHT22;5609;49.466;8.468;2024-01-10T20:53:04;-1.80;99.90
11112;DHT22;5609;49.466;8.468;2024-01-10T20:55:33;-1.80;99.90
11112;DHT22;5609;49.466;8.468;2024-01-10T20:58:00;-1.90;99.90
11112;DHT22;5609;49.466;8.468;2024-01-10T21:00:27;-1.90;99.90
11112;DHT22;5609;49.466;8.468;2024-01-10T21:02:53;-2.00;99.90
11112;DHT22;5609;49.466;8.468;2024-01-10T21:05:21;-2.00;99.90
11112;DHT22;5609;49.466;8.468;2024-01-10T21:07:48;-2.00;99.90
11112;DHT22;5609;49.466;8.468;2024-01-10T21:10:17;-2.00;99.90
11112;DHT22;5609;49.466;8.468;2024-01-10T21:12:47;-2.00;99.90
11112;DHT22;5609;49.466;8.468;2024-01-10T21:15:14;-2.00;99.90
11112;DHT22;5609;49.466;8.468;2024-01-10T21:17:40;-2.00;99.90
11112;DHT22;5609;49.466;8.468;2024-01-10T21:20:08;-2.10;99.90
11112;DHT22;5609;49.466;8.468;2024-01-10T21:22:35;-2.10;99.90
11112;DHT22;5609;49.466;8.468;2024-01-10T21:25:04;-2.20;99.90
11112;DHT22;5609;49.466;8.468;2024-01-10T21:27:32;-2.20;99.90
11112;DHT22;5609;49.466;8.468;2024-01-10T21:30:00;-2.20;99.90
11112;DHT22;5609;49.466;8.468;2024-01-10T21:32:27;-2.20;99.90
11112;DHT22;5609;49.466;8.468;2024-01-10T21:34:53;-2.20;99.90
11112;DHT22;5609;49.466;8.468;2024-01-10T21:37:20;-2.20;99.90
11112;DHT22;5609;49.466;8.468;2024-01-10T21:39:47;-2.20;99.90
11112;DHT22;5609;49.466;8.468;2024-01-10T21:42:13;-2.10;99.90
11112;DHT22;5609;49.466;8.468;2024-01-10T21:44:40;-2.10;99.90
11112;DHT22;5609;49.466;8.468;2024-01-10T21:47:09;-2.10;99.90
11112;DHT22;5609;49.466;8.468;2024-01-10T21:49:35;-2.10;99.90
11112;DHT22;5609;49.466;8.468;2024-01-10T21:52:03;-2.20;99.90
11112;DHT22;5609;49.466;8.468;2024-01-10T21:54:30;-2.20;99.90
11112;DHT22;5609;49.466;8.468;2024-01-10T21:56:59;-2.20;99.90
11112;DHT22;5609;49.466;8.468;2024-01-10T21:59:26;-2.30;99.90
11112;DHT22;5609;49.466;8.468;2024-01-10T22:01:54;-2.30;99.90
11112;DHT22;5609;49.466;8.468;2024-01-10T22:04:22;-2.30;99.90
11112;DHT22;5609;49.466;8.468;2024-01-10T22:06:50;-2.30;99.90
11112;DHT22;5609;49.466;8.468;2024-01-10T22:09:18;-2.40;99.90
11112;DHT22;5609;49.466;8.468;2024-01-10T22:11:46;-2.40;99.90
11112;DHT22;5609;49.466;8.468;2024-01-10T22:14:15;-2.40;99.90
11112;DHT22;5609;49.466;8.468;2024-01-10T22:16:42;-2.50;99.90
11112;DHT22;5609;49.466;8.468;2024-01-10T22:19:09;-2.50;99.90
11112;DHT22;5609;49.466;8.468;2024-01-10T22:21:39;-2.50;99.90
11112;DHT22;5609;49.466;8.468;2024-01-10T22:24:06;-2.60;99.90
11112;DHT22;5609;49.466;8.468;2024-01-10T22:26:33;-2.60;99.90
11112;DHT22;5609;49.466;8.468;2024-01-10T22:29:00;-2.60;99.90
11112;DHT22;5609;49.466;8.468;2024-01-10T22:31:29;-2.50;99.90
11112;DHT22;5609;49.466;8.468;2024-01-10T22:33:56;-2.50;99.90
11112;DHT22;5609;49.466;8.468;2024-01-10T22:36:23;-2.50;99.90
11112;DHT22;5609;49.466;8.468;2024-01-10T22:38:52;-2.50;99.90
11112;DHT22;5609;49.466;8.468;2024-01-10T22:41:19;-2.50;99.90
11112;DHT22;5609;49.466;8.468;2024-01-10T22:43:46;-2.50;99.90
11112;DHT22;5609;49.466;8.468;2024-01-10T22:46:13;-2.50;99.90
11112;DHT22;5609;49.466;8.468;2024-01-10T22:48:39;-2.50;99.90
11112;DHT22;5609;49.466;8.468;2024-01-10T22:51:06;-2.60;99.90
11112;DHT22;5609;49.466;8.468;2024-01-10T22:53:33;-2.60;99.90
11112;DHT22;5609;49.466;8.468;2024-01-10T22:56:01;-2.60;99.90
11112;DHT22;5609;49.466;8.468;2024-01-10T22:58:28;-2.60;99.90
11112;DHT22;5609;49.466;8.468;2024-01-10T23:00:55;-2.70;99.90
11112;DHT22;5609;49.466;8.468;2024-01-10T23:03:22;-2.60;99.90
11112;DHT22;5609;49.466;8.468;2024-01-10T23:05:50;-2.60;99.90
11112;DHT22;5609;49.466;8.468;2024-01-10T23:08:17;-2.60;99.90